• Guest, pentru o varianta fara reclame a forumului oferim conturi premium. Mai multe detalii aici.

FRA - BCN - FRA

Zsolt

King Nothing
Staff member
fly-ra 2017
Zbor: LH1132
Aeronava: A321 - D-AIDK
Loc: 34A
LF: ~85%

EDDF 271350Z 26012KT CAVOK 18/04 Q1009 NOSIG=
LEBL 271600Z 17006KT 130V200 9999 FEW020 18/13 Q1011 NOSIG=

Decolare de pe pista 18, no3 dupa un Cathay Pacific 74F si un Lufthansa CR9.
Zbor destul de lin. In zona STR au inceput sa dispara norii, iar in zona Alpilor a fost superb. Dupa ce am trecut de Alpi, iar au aparut norii si ne-au tinut companie pana la destinatie.

Sosire la Barcelona pe pista 25R, poarta 372.

Cateva poze, ca teaser, cu telefonul. Restul urmeaza.

Jucaria cu pricina.


United 744.




Deasupra Baden Wurtenberg-ului.


Lacul Geneva.


Zona Alpilor.


Cabina cu scaunele Recaro.




Riviera Franceza ... sub nori.


PS
Pozele sunt facute cu telefonul.
 

Zsolt

King Nothing
Staff member
fly-ra 2017
Am ajuns acasa, via coasta de Nord a Africii. :)
Azi ATC-istii din Franta sunt in greva, din cauza asta am zburat via Africa :)
Am ajuns la aeroport la ora 1100LT, iar la baggage drop off am fost intrebati daca nu vrem sa schimbam de pe cursa LH1131 pe 1125, care pleca in aprox 10 minute. Ni s-a explicat ca este posibil ca LH1131 sa fie intarziata sau anulata.
Am acceptat, fuga la gate .... si iata ruta aici.
Poze .... cand le prelucrez.
 

Zsolt

King Nothing
Staff member
fly-ra 2017
Am terminat si eu prima zi din TR.
Dupa numerele de pe tricouri:

Zborul conform fr24.


Intre timp aterizeaza mai multe animale, printre altele:

Air Bridge Cargo


Lufthansa A388


Imbarcare la gateul A24, LF ~95%, loc 34A.

Aeronava care ne-a dus - D-AIDK.



Cabina






Langa noi un animal de la United.





Urcand de la FRA, ajungem in zona padurii negre.



Pe sub noi mai trec unii/altii :)






Ne apropiem de Alpi



O mica gustare la mare altitudine si viteza



Si dovada



Lacul Zurich



Ne apropiem de zona interesanta, iar sub aripa apare Matterhorn.



Si mai de aproape





si micul Mont Blanc



Fratii mai mici







Dupa ce am ajuns in zona Frantei, nu mai vedem nimic sub noi





Finala la BCN - 25R, pista folosita pentru sosiri.





Pe aeroport am filmat mai mult decat pozat. Urmeaza decolarea si aterizarea la BCN.

Dupa aterizare am franat foarte tare, se venea ca pe banda rulanta, am degajat si am facut taxi la gate-ul 274.

Decolarea de pe 18 la FRA si aterizarea la BCN.

Primele nopti le-am petrecut la Hotel Catalonia Sagrada Familia. Un hotel de 3 stele, acceptabil.









Urmeaza urmatoarele zile la Barcelona si Calafell, dupa care returul la FRA. Un zbor interesant.
 

witze

Well-Known Member
Premium Member
Superbe pozele, mai ales cele cu Alpii!asteptam cu nerabdare si restul! Multam frumos!
 
Top